createdAt,value
2023-05-14T00:01:04.715Z,10.15
2023-05-14T00:03:51.651Z,10.15
2023-05-14T00:06:31.862Z,10.50
2023-05-14T00:09:19.551Z,10.82
2023-05-14T00:11:59.625Z,10.38
2023-05-14T00:14:46.570Z,9.57
2023-05-14T00:17:26.697Z,9.93
2023-05-14T00:20:13.625Z,10.32
2023-05-14T00:22:53.704Z,10.48
2023-05-14T00:25:40.572Z,9.93
2023-05-14T00:28:27.569Z,10.02
2023-05-14T00:31:08.088Z,10.00
2023-05-14T00:33:54.577Z,9.73
2023-05-14T00:36:41.560Z,8.68
2023-05-14T00:39:21.622Z,9.50
2023-05-14T00:42:08.561Z,10.07
2023-05-14T00:45:02.574Z,8.77
2023-05-14T00:47:50.637Z,8.63
2023-05-14T00:50:37.545Z,9.93
2023-05-14T00:53:25.707Z,9.48
2023-05-14T00:56:05.573Z,8.60
2023-05-14T00:58:46.081Z,9.60
2023-05-14T01:01:34.794Z,8.90
2023-05-14T01:04:21.630Z,8.45
2023-05-14T01:07:32.568Z,9.57
2023-05-14T01:10:43.587Z,9.23
2023-05-14T01:13:48.579Z,8.77
2023-05-14T01:16:37.692Z,9.20
2023-05-14T01:19:49.570Z,9.50
2023-05-14T01:22:30.052Z,9.20
2023-05-14T01:25:16.618Z,9.63
2023-05-14T01:28:26.582Z,9.68
2023-05-14T01:31:34.615Z,9.32
2023-05-14T01:34:16.315Z,10.13
2023-05-14T01:37:03.595Z,9.23
2023-05-14T01:39:51.636Z,9.18
2023-05-14T01:42:32.558Z,9.07
2023-05-14T01:45:19.616Z,9.70
2023-05-14T01:48:00.606Z,8.98
2023-05-14T01:50:41.148Z,9.25
2023-05-14T01:53:27.565Z,9.05
2023-05-14T01:56:08.076Z,9.15
2023-05-14T01:58:54.573Z,10.02
2023-05-14T02:04:21.674Z,8.77
2023-05-14T02:07:02.055Z,10.05
2023-05-14T02:09:48.614Z,9.10
2023-05-14T02:12:35.582Z,9.70
2023-05-14T02:15:16.684Z,9.65
2023-05-14T02:18:03.625Z,8.93
2023-05-14T02:20:43.621Z,9.30
2023-05-14T02:23:38.222Z,9.68
2023-05-14T02:26:21.480Z,10.02
2023-05-14T02:29:08.594Z,9.60
2023-05-14T02:31:48.714Z,9.90
2023-05-14T02:34:35.578Z,9.35
2023-05-14T02:37:15.941Z,8.95
2023-05-14T02:40:02.575Z,9.65
2023-05-14T02:42:42.648Z,9.43
2023-05-14T02:45:36.564Z,8.55
2023-05-14T02:48:17.066Z,9.50
2023-05-14T02:51:03.585Z,9.25
2023-05-14T02:53:50.578Z,9.35
2023-05-14T02:56:30.646Z,8.60
2023-05-14T02:59:17.581Z,9.13
2023-05-14T03:02:04.634Z,9.57
2023-05-14T03:04:45.093Z,9.18
2023-05-14T03:07:31.571Z,9.27
2023-05-14T03:10:18.633Z,9.57
2023-05-14T03:12:58.596Z,9.10
2023-05-14T03:15:46.917Z,9.52
2023-05-14T03:18:27.637Z,8.80
2023-05-14T03:21:14.660Z,8.88
2023-05-14T03:23:55.579Z,9.35
2023-05-14T03:26:43.584Z,9.38
2023-05-14T03:29:23.664Z,9.43
2023-05-14T03:32:10.581Z,10.25
2023-05-14T03:37:37.599Z,9.55
2023-05-14T03:40:17.688Z,9.40
2023-05-14T03:43:04.614Z,9.40
2023-05-14T03:45:52.587Z,9.15
2023-05-14T03:48:32.681Z,9.32
2023-05-14T03:51:19.593Z,8.93
2023-05-14T03:53:59.732Z,9.02
2023-05-14T03:56:46.591Z,9.80
2023-05-14T03:59:26.610Z,9.30
2023-05-14T04:02:13.644Z,9.43
2023-05-14T04:05:00.604Z,8.90
2023-05-14T04:10:27.645Z,9.02
2023-05-14T04:13:14.601Z,9.32
2023-05-14T04:16:01.597Z,8.20
2023-05-14T04:18:48.576Z,8.68
2023-05-14T04:21:28.661Z,9.18
2023-05-14T04:24:15.586Z,9.15
2023-05-14T04:26:55.654Z,8.82
2023-05-14T04:29:42.587Z,8.60
2023-05-14T04:32:22.797Z,8.65
2023-05-14T04:35:10.592Z,8.88
2023-05-14T04:37:57.590Z,8.60
2023-05-14T04:43:24.591Z,7.93
2023-05-14T04:48:51.584Z,7.63
2023-05-14T04:51:32.551Z,8.35
2023-05-14T04:54:19.653Z,8.60
2023-05-14T04:57:03.219Z,8.38
2023-05-14T04:59:49.591Z,8.80
2023-05-14T05:02:30.083Z,8.27
2023-05-14T05:05:17.589Z,8.50
2023-05-14T05:08:04.648Z,7.45
2023-05-14T05:13:31.611Z,7.68
2023-05-14T05:16:11.786Z,8.02
2023-05-14T05:18:58.655Z,7.88
2023-05-14T05:21:47.583Z,7.90
2023-05-14T05:24:28.050Z,8.20
2023-05-14T05:27:14.628Z,7.32
2023-05-14T05:30:01.685Z,7.80
2023-05-14T05:32:48.663Z,7.90
2023-05-14T05:35:35.597Z,8.25
2023-05-14T05:38:22.627Z,7.22
2023-05-14T05:41:09.594Z,7.78
2023-05-14T05:43:49.664Z,7.82
2023-05-14T05:46:36.665Z,7.25
2023-05-14T05:49:23.585Z,7.00
2023-05-14T05:52:04.775Z,7.60
2023-05-14T05:54:51.618Z,7.47
2023-05-14T05:57:38.602Z,7.18
2023-05-14T06:00:18.954Z,7.55
2023-05-14T06:03:05.644Z,7.82
2023-05-14T06:05:53.671Z,7.05
2023-05-14T06:08:40.775Z,7.30
2023-05-14T06:11:20.619Z,7.63
2023-05-14T06:14:07.605Z,7.53
2023-05-14T06:19:35.602Z,7.00
2023-05-14T06:22:22.595Z,6.38
2023-05-14T06:25:09.728Z,7.30
2023-05-14T06:27:49.622Z,7.03
2023-05-14T06:30:30.268Z,7.30
2023-05-14T06:33:17.418Z,7.60
2023-05-14T06:36:00.859Z,7.28
2023-05-14T06:38:47.625Z,5.80
2023-05-14T06:41:29.571Z,6.30
2023-05-14T06:44:16.608Z,6.03
2023-05-14T06:47:03.667Z,6.65
2023-05-14T06:49:44.748Z,5.40
2023-05-14T06:52:32.641Z,5.57
2023-05-14T06:55:13.679Z,6.07
2023-05-14T06:58:00.610Z,4.72
2023-05-14T07:00:47.627Z,5.30
2023-05-14T07:03:35.625Z,5.35
2023-05-14T07:06:22.597Z,5.38
2023-05-14T07:09:03.348Z,6.60
2023-05-14T07:11:49.633Z,5.20
2023-05-14T07:14:30.058Z,5.20
2023-05-14T07:17:16.783Z,4.95
2023-05-14T07:20:03.652Z,6.45
2023-05-14T07:22:43.634Z,7.07
2023-05-14T07:25:24.078Z,5.22
2023-05-14T07:28:10.644Z,5.30
2023-05-14T07:30:51.106Z,5.07
2023-05-14T07:33:37.609Z,4.97
2023-05-14T07:36:18.156Z,5.00
2023-05-14T07:39:11.642Z,5.10
2023-05-14T07:41:52.982Z,5.10
2023-05-14T07:44:39.701Z,4.95
2023-05-14T07:47:20.345Z,5.28
2023-05-14T07:50:10.672Z,5.10
2023-05-14T07:52:51.084Z,5.25
2023-05-14T07:55:37.675Z,5.30
2023-05-14T07:58:25.069Z,4.93
2023-05-14T08:01:04.633Z,4.75
2023-05-14T08:03:45.791Z,4.95
2023-05-14T08:06:33.621Z,6.07
2023-05-14T08:09:20.669Z,5.30
2023-05-14T08:12:00.620Z,5.43
2023-05-14T08:14:41.136Z,5.05
2023-05-14T08:17:27.692Z,5.72
2023-05-14T08:20:08.991Z,6.07
2023-05-14T08:22:55.643Z,5.20
2023-05-14T08:25:36.115Z,5.07
2023-05-14T08:28:22.653Z,5.07
2023-05-14T08:31:03.166Z,5.63
2023-05-14T08:33:49.633Z,5.18
2023-05-14T08:36:36.616Z,5.00
2023-05-14T08:39:16.772Z,5.43
2023-05-14T08:42:06.639Z,4.80
2023-05-14T08:45:02.628Z,5.30
2023-05-14T08:47:54.742Z,5.82
2023-05-14T08:50:36.079Z,6.20
2023-05-14T08:53:22.650Z,6.25
2023-05-14T08:56:09.641Z,5.97
2023-05-14T08:58:50.120Z,5.32
2023-05-14T09:01:36.711Z,4.78
2023-05-14T09:04:29.667Z,5.22
2023-05-14T09:07:16.633Z,5.40
2023-05-14T09:10:03.648Z,5.07
2023-05-14T09:12:43.698Z,4.88
2023-05-14T09:15:34.635Z,4.80
2023-05-14T09:18:14.769Z,4.40
2023-05-14T09:21:02.735Z,5.05
2023-05-14T09:23:49.736Z,4.60
2023-05-14T09:26:38.662Z,4.88
2023-05-14T09:29:25.644Z,4.43
2023-05-14T09:32:12.803Z,4.45
2023-05-14T09:34:52.641Z,4.35
2023-05-14T09:37:36.632Z,4.28
2023-05-14T09:40:25.149Z,4.97
2023-05-14T09:43:05.363Z,4.65
2023-05-14T09:45:51.658Z,4.57
2023-05-14T09:48:38.691Z,3.90
2023-05-14T09:51:20.933Z,4.03
2023-05-14T09:54:08.640Z,4.05
2023-05-14T09:56:50.944Z,4.18
2023-05-14T09:59:37.658Z,4.93
2023-05-14T10:02:35.660Z,4.38
2023-05-14T10:05:22.644Z,4.25
2023-05-14T10:08:05.806Z,4.13
2023-05-14T10:10:52.631Z,3.90
2023-05-14T10:13:38.697Z,3.88
2023-05-14T10:16:41.695Z,3.65
2023-05-14T10:19:30.685Z,3.78
2023-05-14T10:22:21.710Z,4.18
2023-05-14T10:25:02.734Z,4.10
2023-05-14T10:27:50.649Z,4.20
2023-05-14T10:30:37.663Z,4.03
2023-05-14T10:33:25.668Z,3.88
2023-05-14T10:36:13.917Z,3.92
2023-05-14T10:39:03.683Z,4.10
2023-05-14T10:41:52.779Z,4.15
2023-05-14T10:44:49.646Z,3.97
2023-05-14T10:47:37.811Z,3.85
2023-05-14T10:50:19.760Z,3.72
2023-05-14T10:53:07.696Z,3.42
2023-05-14T10:55:49.764Z,3.67
2023-05-14T10:58:40.701Z,3.92
2023-05-14T11:01:20.891Z,3.90
2023-05-14T11:04:09.760Z,3.83
2023-05-14T11:06:50.712Z,3.90
2023-05-14T11:09:37.676Z,3.80
2023-05-14T11:12:17.728Z,3.80
2023-05-14T11:15:05.701Z,3.40
2023-05-14T11:17:48.877Z,3.60
2023-05-14T11:20:36.683Z,4.05
2023-05-14T11:23:23.731Z,4.05
2023-05-14T11:26:10.707Z,4.18
2023-05-14T11:28:50.714Z,4.20
2023-05-14T11:31:37.757Z,3.55
2023-05-14T11:34:17.807Z,3.92
2023-05-14T11:37:04.699Z,3.85
2023-05-14T11:39:45.805Z,3.90
2023-05-14T11:42:32.681Z,4.00
2023-05-14T11:45:13.773Z,3.85
2023-05-14T11:48:01.729Z,4.07
2023-05-14T11:50:42.729Z,3.88
2023-05-14T11:53:37.707Z,3.50
2023-05-14T11:56:24.685Z,3.97
2023-05-14T11:59:11.700Z,3.85
2023-05-14T12:01:52.589Z,3.78
2023-05-14T12:04:39.747Z,4.07
2023-05-14T12:07:28.701Z,3.60
2023-05-14T12:10:18.780Z,4.07
2023-05-14T12:12:58.675Z,3.92
2023-05-14T12:15:46.935Z,3.95
2023-05-14T12:18:26.753Z,4.13
2023-05-14T12:21:14.720Z,3.58
2023-05-14T12:24:01.721Z,4.32
2023-05-14T12:26:49.732Z,3.63
2023-05-14T12:29:36.697Z,3.85
2023-05-14T12:32:24.687Z,3.60
2023-05-14T12:35:04.762Z,4.07
2023-05-14T12:37:51.685Z,3.92
2023-05-14T12:40:31.725Z,4.05
2023-05-14T12:43:18.681Z,4.18
2023-05-14T12:46:05.676Z,4.00
2023-05-14T12:48:46.430Z,3.95
2023-05-14T12:51:32.724Z,4.22
2023-05-14T12:54:19.807Z,4.03
2023-05-14T12:56:59.701Z,4.18
2023-05-14T12:59:41.090Z,4.60
2023-05-14T13:02:27.728Z,3.80
2023-05-14T13:05:14.753Z,4.10
2023-05-14T13:07:54.701Z,4.40
2023-05-14T13:10:41.954Z,4.40
2023-05-14T13:13:22.708Z,4.13
2023-05-14T13:16:09.835Z,4.38
2023-05-14T13:18:49.755Z,4.30
2023-05-14T13:21:31.285Z,4.25
2023-05-14T13:24:17.691Z,4.18
2023-05-14T13:26:58.189Z,4.40
2023-05-14T13:29:44.741Z,4.40
2023-05-14T13:32:25.844Z,4.35
2023-05-14T13:35:12.713Z,3.85
2023-05-14T13:37:59.695Z,4.35
2023-05-14T13:40:46.706Z,4.68
2023-05-14T13:43:27.181Z,4.30
2023-05-14T13:46:14.773Z,4.63
2023-05-14T13:48:55.619Z,4.47
2023-05-14T13:51:42.927Z,4.25
2023-05-14T13:54:23.185Z,4.47
2023-05-14T13:57:09.732Z,4.50
2023-05-14T13:59:56.761Z,4.50
2023-05-14T14:02:37.745Z,4.57
2023-05-14T14:08:22.139Z,4.90
2023-05-14T14:11:04.458Z,4.32
2023-05-14T14:13:50.735Z,4.50
2023-05-14T14:16:37.919Z,3.97
2023-05-14T14:19:18.521Z,4.70
2023-05-14T14:22:05.710Z,4.60
2023-05-14T14:24:45.773Z,4.80
2023-05-14T14:27:32.720Z,4.68
2023-05-14T14:30:24.734Z,4.75
2023-05-14T14:33:11.847Z,4.35
2023-05-14T14:35:51.746Z,4.57
2023-05-14T14:38:41.993Z,4.40
2023-05-14T14:41:21.714Z,4.55
2023-05-14T14:44:09.718Z,4.82
2023-05-14T14:46:56.913Z,4.57
2023-05-14T14:49:37.716Z,4.40
2023-05-14T14:52:24.866Z,4.35
2023-05-14T14:55:05.703Z,4.28
2023-05-14T14:57:52.728Z,4.18
2023-05-14T15:00:39.731Z,4.22
2023-05-14T15:03:27.762Z,4.38
2023-05-14T15:06:14.729Z,4.57
2023-05-14T15:09:01.717Z,4.20
2023-05-14T15:11:41.835Z,4.72
2023-05-14T15:14:28.740Z,4.07
2023-05-14T15:17:15.769Z,4.35
2023-05-14T15:20:02.732Z,4.78
2023-05-14T15:22:42.779Z,4.53
2023-05-14T15:25:30.754Z,4.53
2023-05-14T15:28:12.874Z,4.05
2023-05-14T15:30:59.746Z,4.40
2023-05-14T15:33:41.673Z,4.43
2023-05-14T15:36:28.746Z,4.50
2023-05-14T15:39:10.311Z,4.50
2023-05-14T15:41:56.733Z,4.72
2023-05-14T15:44:38.704Z,4.50
2023-05-14T15:47:25.727Z,4.75
2023-05-14T15:50:12.733Z,4.80
2023-05-14T15:52:59.722Z,4.72
2023-05-14T15:55:46.725Z,4.15
2023-05-14T15:58:33.738Z,4.88
2023-05-14T16:01:13.851Z,4.82
2023-05-14T16:04:00.817Z,4.70
2023-05-14T16:06:48.767Z,4.25
2023-05-14T16:09:29.222Z,4.72
2023-05-14T16:12:15.751Z,4.65
2023-05-14T16:15:03.820Z,5.00
2023-05-14T16:17:43.937Z,5.20
2023-05-14T16:20:30.752Z,4.68
2023-05-14T16:23:10.804Z,5.18
2023-05-14T16:25:57.751Z,5.32
2023-05-14T16:28:41.129Z,4.60
2023-05-14T16:31:27.770Z,5.10
2023-05-14T16:34:07.880Z,4.75
2023-05-14T16:37:02.754Z,5.15
2023-05-14T16:39:42.815Z,4.80
2023-05-14T16:42:29.749Z,4.88
2023-05-14T16:45:09.847Z,5.10
2023-05-14T16:47:59.795Z,4.90
2023-05-14T16:50:46.780Z,4.53
2023-05-14T16:53:33.744Z,5.10
2023-05-14T16:56:13.788Z,5.15
2023-05-14T16:59:00.739Z,5.90
2023-05-14T17:01:41.805Z,4.82
2023-05-14T17:04:31.785Z,5.18
2023-05-14T17:07:11.830Z,4.32
2023-05-14T17:09:58.738Z,5.22
2023-05-14T17:12:38.794Z,4.82
2023-05-14T17:15:25.854Z,5.50
2023-05-14T17:18:05.759Z,5.55
2023-05-14T17:20:52.746Z,5.90
2023-05-14T17:23:33.654Z,5.63
2023-05-14T17:26:20.727Z,5.57
2023-05-14T17:29:01.702Z,6.07
2023-05-14T17:31:48.905Z,6.38
2023-05-14T17:34:29.306Z,6.22
2023-05-14T17:37:15.757Z,5.72
2023-05-14T17:39:56.252Z,7.10
2023-05-14T17:42:42.758Z,6.38
2023-05-14T17:45:52.433Z,5.63
2023-05-14T17:48:40.828Z,5.45
2023-05-14T17:51:20.768Z,5.97
2023-05-14T17:54:01.239Z,5.28
2023-05-14T17:56:47.777Z,6.20
2023-05-14T17:59:34.755Z,5.20
2023-05-14T18:02:14.810Z,5.32
2023-05-14T18:05:01.764Z,6.35
2023-05-14T18:07:41.925Z,5.28
2023-05-14T18:10:28.764Z,5.97
2023-05-14T18:13:08.831Z,5.93
2023-05-14T18:15:57.794Z,5.25
2023-05-14T18:18:37.874Z,5.57
2023-05-14T18:21:24.776Z,5.55
2023-05-14T18:24:11.773Z,5.50
2023-05-14T18:26:58.796Z,5.28
2023-05-14T18:29:38.845Z,5.50
2023-05-14T18:32:27.813Z,5.35
2023-05-14T18:35:14.804Z,5.63
2023-05-14T18:38:01.765Z,5.78
2023-05-14T18:40:41.822Z,5.10
2023-05-14T18:43:28.764Z,4.80
2023-05-14T18:46:15.947Z,4.88
2023-05-14T18:48:56.770Z,5.00
2023-05-14T18:51:37.237Z,4.97
2023-05-14T18:54:23.776Z,4.70
2023-05-14T18:57:10.819Z,5.28
2023-05-14T18:59:57.792Z,4.70
2023-05-14T19:02:44.966Z,5.45
2023-05-14T19:05:25.165Z,5.68
2023-05-14T19:08:11.841Z,5.18
2023-05-14T19:10:51.786Z,5.07
2023-05-14T19:13:38.807Z,5.45
2023-05-14T19:16:20.069Z,4.97
2023-05-14T19:19:06.854Z,4.57
2023-05-14T19:21:53.782Z,4.93
2023-05-14T19:24:34.283Z,5.78
2023-05-14T19:27:22.798Z,4.60
2023-05-14T19:30:03.499Z,5.47
2023-05-14T19:32:49.811Z,4.85
2023-05-14T19:35:36.896Z,5.43
2023-05-14T19:38:17.818Z,5.10
2023-05-14T19:40:58.273Z,4.60
2023-05-14T19:43:44.836Z,5.15
2023-05-14T19:46:38.799Z,5.00
2023-05-14T19:49:25.782Z,5.70
2023-05-14T19:52:05.865Z,5.68
2023-05-14T19:54:52.765Z,5.85
2023-05-14T19:57:39.788Z,5.68
2023-05-14T20:00:22.331Z,5.75
2023-05-14T20:03:08.886Z,6.18
2023-05-14T20:05:55.816Z,7.10
2023-05-14T20:08:35.869Z,6.22
2023-05-14T20:11:24.871Z,6.47
2023-05-14T20:14:04.886Z,5.82
2023-05-14T20:16:52.845Z,6.18
2023-05-14T20:19:32.842Z,6.30
2023-05-14T20:22:19.791Z,5.97
2023-05-14T20:24:59.854Z,5.63
2023-05-14T20:27:47.789Z,5.40
2023-05-14T20:30:27.876Z,6.00
2023-05-14T20:33:14.871Z,6.47
2023-05-14T20:36:01.806Z,6.15
2023-05-14T20:38:48.979Z,6.15
2023-05-14T20:41:28.784Z,5.75
2023-05-14T20:44:16.412Z,5.93
2023-05-14T20:47:03.836Z,5.78
2023-05-14T20:49:43.827Z,6.40
2023-05-14T20:52:30.807Z,6.43
2023-05-14T20:55:17.782Z,5.90
2023-05-14T20:57:58.292Z,5.90
2023-05-14T21:00:44.793Z,6.30
2023-05-14T21:03:25.358Z,6.28
2023-05-14T21:06:11.793Z,6.60
2023-05-14T21:08:52.318Z,6.50
2023-05-14T21:11:38.797Z,6.30
2023-05-14T21:14:25.803Z,6.07
2023-05-14T21:17:05.862Z,5.80
2023-05-14T21:19:52.776Z,6.07
2023-05-14T21:22:33.910Z,6.35
2023-05-14T21:25:20.852Z,5.95
2023-05-14T21:28:00.856Z,6.30
2023-05-14T21:30:47.788Z,6.05
2023-05-14T21:33:27.992Z,6.05
2023-05-14T21:36:15.823Z,6.07
2023-05-14T21:38:55.897Z,6.10
2023-05-14T21:41:42.802Z,6.20
2023-05-14T21:44:22.863Z,6.40
2023-05-14T21:47:10.791Z,6.40
2023-05-14T21:49:50.872Z,6.38
2023-05-14T21:52:37.825Z,6.85
2023-05-14T21:55:25.020Z,6.32
2023-05-14T21:58:06.888Z,6.28
2023-05-14T22:00:53.859Z,6.13
2023-05-14T22:03:41.428Z,6.13
2023-05-14T22:06:20.801Z,6.45
2023-05-14T22:09:07.859Z,6.70
2023-05-14T22:11:47.870Z,6.53
2023-05-14T22:14:34.803Z,6.60
2023-05-14T22:17:14.869Z,6.88
2023-05-14T22:20:01.811Z,6.50
2023-05-14T22:22:41.868Z,7.15
2023-05-14T22:25:28.800Z,7.05
2023-05-14T22:28:15.821Z,7.35
2023-05-14T22:30:59.574Z,7.30
2023-05-14T22:33:45.836Z,6.68
2023-05-14T22:36:32.886Z,7.25
2023-05-14T22:39:13.640Z,7.22
2023-05-14T22:42:01.810Z,8.07
2023-05-14T22:44:41.853Z,7.43
2023-05-14T22:47:28.831Z,7.50
2023-05-14T22:50:17.810Z,7.13
2023-05-14T22:53:04.816Z,7.90
2023-05-14T22:55:51.823Z,8.23
2023-05-14T22:58:32.359Z,7.68
2023-05-14T23:01:18.869Z,7.30
2023-05-14T23:03:59.306Z,7.50
2023-05-14T23:06:45.821Z,7.68
2023-05-14T23:09:26.305Z,7.90
2023-05-14T23:12:12.846Z,7.63
2023-05-14T23:14:59.810Z,7.72
2023-05-14T23:17:46.887Z,8.77
2023-05-14T23:20:33.826Z,8.75
2023-05-14T23:23:20.843Z,8.38
2023-05-14T23:26:07.910Z,8.90
2023-05-14T23:28:47.811Z,8.40
2023-05-14T23:31:35.321Z,8.32
2023-05-14T23:34:14.821Z,8.52
2023-05-14T23:37:01.801Z,8.52
2023-05-14T23:39:41.891Z,8.80
2023-05-14T23:42:28.804Z,8.10
2023-05-14T23:45:08.876Z,8.70
2023-05-14T23:47:55.894Z,8.88
2023-05-14T23:50:35.858Z,8.65
2023-05-14T23:53:22.826Z,9.02
2023-05-14T23:56:02.881Z,9.00
2023-05-14T23:58:49.813Z,9.55
